sensor_id;sensor_type;location;lat;lon;timestamp;pressure;altitude;pressure_sealevel;temperature;humidity
64053;BME280;50299;49.524;8.536;2023-01-27T00:00:50;100942.53;;;-0.24;81.60
64053;BME280;50299;49.524;8.536;2023-01-27T00:03:17;100951.34;;;0.51;94.37
64053;BME280;50299;49.524;8.536;2023-01-27T00:05:45;100940.84;;;0.59;91.24
64053;BME280;50299;49.524;8.536;2023-01-27T00:08:12;100943.44;;;0.15;74.59
64053;BME280;50299;49.524;8.536;2023-01-27T00:10:39;100956.47;;;0.30;89.86
64053;BME280;50299;49.524;8.536;2023-01-27T00:13:05;100952.34;;;0.83;93.85
64053;BME280;50299;49.524;8.536;2023-01-27T00:15:50;100945.53;;;0.08;79.84
64053;BME280;50299;49.524;8.536;2023-01-27T00:18:17;100934.53;;;-0.31;69.16
64053;BME280;50299;49.524;8.536;2023-01-27T00:20:43;100923.06;;;-0.49;73.52
64053;BME280;50299;49.524;8.536;2023-01-27T00:23:28;100935.34;;;-0.59;71.62
64053;BME280;50299;49.524;8.536;2023-01-27T00:26:15;100936.97;;;-0.00;95.12
64053;BME280;50299;49.524;8.536;2023-01-27T00:28:43;100940.09;;;0.64;97.29
64053;BME280;50299;49.524;8.536;2023-01-27T00:31:12;100934.97;;;0.45;85.98
64053;BME280;50299;49.524;8.536;2023-01-27T00:33:57;100930.31;;;0.85;96.96
64053;BME280;50299;49.524;8.536;2023-01-27T00:36:36;100929.22;;;0.25;75.27
64053;BME280;50299;49.524;8.536;2023-01-27T00:39:04;100928.88;;;0.05;78.80
64053;BME280;50299;49.524;8.536;2023-01-27T00:41:31;100923.19;;;-0.85;66.52
64053;BME280;50299;49.524;8.536;2023-01-27T00:43:59;100931.28;;;-1.25;70.37
64053;BME280;50299;49.524;8.536;2023-01-27T00:46:26;100912.53;;;-1.38;77.93
64053;BME280;50299;49.524;8.536;2023-01-27T00:48:53;100923.16;;;-0.44;96.78
64053;BME280;50299;49.524;8.536;2023-01-27T00:51:19;100933.41;;;0.33;99.17
64053;BME280;50299;49.524;8.536;2023-01-27T00:53:46;100923.28;;;0.67;97.06
64053;BME280;50299;49.524;8.536;2023-01-27T00:56:13;100930.47;;;0.95;95.44
64053;BME280;50299;49.524;8.536;2023-01-27T00:58:39;100917.19;;;1.26;98.28
64053;BME280;50299;49.524;8.536;2023-01-27T01:01:07;100923.06;;;1.61;100.00
64053;BME280;50299;49.524;8.536;2023-01-27T01:03:36;100917.47;;;1.24;80.77
64053;BME280;50299;49.524;8.536;2023-01-27T01:06:05;100918.41;;;0.30;73.06
64053;BME280;50299;49.524;8.536;2023-01-27T01:08:33;100914.38;;;-0.01;75.09
64053;BME280;50299;49.524;8.536;2023-01-27T01:11:00;100918.84;;;0.05;82.21
64053;BME280;50299;49.524;8.536;2023-01-27T01:13:26;100914.28;;;0.11;80.40
64053;BME280;50299;49.524;8.536;2023-01-27T01:15:54;100920.53;;;0.28;86.92
64053;BME280;50299;49.524;8.536;2023-01-27T01:18:20;100925.66;;;0.41;85.07
64053;BME280;50299;49.524;8.536;2023-01-27T01:20:47;100925.88;;;0.40;76.01
64053;BME280;50299;49.524;8.536;2023-01-27T01:23:14;100930.66;;;-0.35;66.01
64053;BME280;50299;49.524;8.536;2023-01-27T01:25:40;100927.69;;;-0.90;75.07
64053;BME280;50299;49.524;8.536;2023-01-27T01:28:08;100924.78;;;-0.72;80.68
64053;BME280;50299;49.524;8.536;2023-01-27T01:30:35;100925.97;;;0.11;96.35
64053;BME280;50299;49.524;8.536;2023-01-27T01:33:02;100927.53;;;0.07;84.37
64053;BME280;50299;49.524;8.536;2023-01-27T01:35:29;100929.34;;;0.35;91.41
64053;BME280;50299;49.524;8.536;2023-01-27T01:37:56;100926.91;;;0.00;71.40
64053;BME280;50299;49.524;8.536;2023-01-27T01:40:22;100920.72;;;0.60;97.16
64053;BME280;50299;49.524;8.536;2023-01-27T01:43:02;100931.72;;;0.65;85.75
64053;BME280;50299;49.524;8.536;2023-01-27T01:47:59;100931.09;;;0.25;76.27
64053;BME280;50299;49.524;8.536;2023-01-27T01:50:28;100931.00;;;0.03;82.31
64053;BME280;50299;49.524;8.536;2023-01-27T01:52:56;100931.97;;;0.47;91.17
64053;BME280;50299;49.524;8.536;2023-01-27T01:55:23;100938.56;;;0.51;85.32
64053;BME280;50299;49.524;8.536;2023-01-27T01:57:50;100934.88;;;0.79;93.06
64053;BME280;50299;49.524;8.536;2023-01-27T02:00:17;100931.47;;;1.33;95.71
64053;BME280;50299;49.524;8.536;2023-01-27T02:02:44;100933.41;;;0.93;81.24
64053;BME280;50299;49.524;8.536;2023-01-27T02:05:20;100922.97;;;0.85;82.55
64053;BME280;50299;49.524;8.536;2023-01-27T02:08:24;100928.66;;;0.62;77.79
64053;BME280;50299;49.524;8.536;2023-01-27T02:10:53;100926.94;;;0.56;74.72
64053;BME280;50299;49.524;8.536;2023-01-27T02:13:20;100912.34;;;0.62;86.90
64053;BME280;50299;49.524;8.536;2023-01-27T02:15:47;100915.94;;;1.33;96.57
64053;BME280;50299;49.524;8.536;2023-01-27T02:18:15;100912.19;;;0.52;68.28
64053;BME280;50299;49.524;8.536;2023-01-27T02:20:47;100919.25;;;0.14;72.05
64053;BME280;50299;49.524;8.536;2023-01-27T02:23:20;100910.09;;;-0.14;79.60
64053;BME280;50299;49.524;8.536;2023-01-27T02:28:19;100908.69;;;-0.33;70.90
64053;BME280;50299;49.524;8.536;2023-01-27T02:30:45;100912.75;;;-0.47;77.29
64053;BME280;50299;49.524;8.536;2023-01-27T02:33:13;100913.72;;;-0.70;74.42
64053;BME280;50299;49.524;8.536;2023-01-27T02:35:45;100912.63;;;-0.98;72.70
64053;BME280;50299;49.524;8.536;2023-01-27T02:38:16;100900.44;;;-0.67;86.62
64053;BME280;50299;49.524;8.536;2023-01-27T02:40:43;100913.06;;;-0.61;85.04
64053;BME280;50299;49.524;8.536;2023-01-27T02:43:12;100917.13;;;-0.46;82.86
64053;BME280;50299;49.524;8.536;2023-01-27T02:45:38;100914.72;;;-1.12;75.92
64053;BME280;50299;49.524;8.536;2023-01-27T02:48:05;100909.19;;;-0.65;81.09
64053;BME280;50299;49.524;8.536;2023-01-27T02:50:31;100913.09;;;-0.44;88.15
64053;BME280;50299;49.524;8.536;2023-01-27T02:52:58;100909.94;;;0.10;92.98
64053;BME280;50299;49.524;8.536;2023-01-27T02:55:24;100921.53;;;0.22;88.87
64053;BME280;50299;49.524;8.536;2023-01-27T02:57:50;100915.75;;;-0.32;69.43
64053;BME280;50299;49.524;8.536;2023-01-27T03:00:33;100909.56;;;-0.44;80.92
64053;BME280;50299;49.524;8.536;2023-01-27T03:02:59;100916.84;;;-0.62;72.77
64053;BME280;50299;49.524;8.536;2023-01-27T03:05:26;100916.84;;;-0.62;82.74
64053;BME280;50299;49.524;8.536;2023-01-27T03:07:52;100924.88;;;-0.67;79.92
64053;BME280;50299;49.524;8.536;2023-01-27T03:10:19;100922.28;;;-0.90;75.64
64053;BME280;50299;49.524;8.536;2023-01-27T03:12:45;100926.19;;;-1.21;71.96
64053;BME280;50299;49.524;8.536;2023-01-27T03:15:12;100928.53;;;-1.13;77.39
64053;BME280;50299;49.524;8.536;2023-01-27T03:18:08;100916.84;;;-0.62;84.31
64053;BME280;50299;49.524;8.536;2023-01-27T03:20:36;100918.97;;;-0.64;83.53
64053;BME280;50299;49.524;8.536;2023-01-27T03:23:03;100924.84;;;-0.55;80.00
64053;BME280;50299;49.524;8.536;2023-01-27T03:25:29;100934.88;;;-0.84;71.95
64053;BME280;50299;49.524;8.536;2023-01-27T03:27:56;100926.16;;;-0.86;82.76
64053;BME280;50299;49.524;8.536;2023-01-27T03:30:22;100923.84;;;-1.30;76.07
64053;BME280;50299;49.524;8.536;2023-01-27T03:32:48;100921.25;;;-1.24;74.82
64053;BME280;50299;49.524;8.536;2023-01-27T03:35:15;100925.56;;;-1.12;82.79
64053;BME280;50299;49.524;8.536;2023-01-27T03:37:42;100926.03;;;-0.91;81.35
64053;BME280;50299;49.524;8.536;2023-01-27T03:40:28;100925.97;;;-1.08;75.48
64053;BME280;50299;49.524;8.536;2023-01-27T03:43:13;100924.69;;;-1.41;73.55
64053;BME280;50299;49.524;8.536;2023-01-27T03:45:57;100930.25;;;-1.36;80.91
64053;BME280;50299;49.524;8.536;2023-01-27T03:48:44;100928.44;;;-1.30;83.02
64053;BME280;50299;49.524;8.536;2023-01-27T03:51:13;100929.44;;;-0.84;87.97
64053;BME280;50299;49.524;8.536;2023-01-27T03:53:39;100926.19;;;-0.41;90.99
64053;BME280;50299;49.524;8.536;2023-01-27T03:56:06;100928.94;;;-0.24;81.78
64053;BME280;50299;49.524;8.536;2023-01-27T03:58:34;100938.34;;;0.02;88.61
64053;BME280;50299;49.524;8.536;2023-01-27T04:01:10;100945.66;;;-0.32;72.60
64053;BME280;50299;49.524;8.536;2023-01-27T04:03:37;100939.72;;;-0.86;76.07
64053;BME280;50299;49.524;8.536;2023-01-27T04:06:26;100940.78;;;-0.59;85.71
64053;BME280;50299;49.524;8.536;2023-01-27T04:09:12;100943.56;;;-1.34;70.53
64053;BME280;50299;49.524;8.536;2023-01-27T04:11:39;100944.97;;;-1.55;74.94
64053;BME280;50299;49.524;8.536;2023-01-27T04:16:52;100939.44;;;-1.60;87.25
64053;BME280;50299;49.524;8.536;2023-01-27T04:19:19;100950.06;;;-1.47;81.94
64053;BME280;50299;49.524;8.536;2023-01-27T04:21:46;100957.31;;;-1.94;73.16
64053;BME280;50299;49.524;8.536;2023-01-27T04:24:14;100950.28;;;-1.84;76.61
64053;BME280;50299;49.524;8.536;2023-01-27T04:27:04;100945.91;;;-1.38;84.75
64053;BME280;50299;49.524;8.536;2023-01-27T04:29:33;100942.63;;;-1.52;81.32
64053;BME280;50299;49.524;8.536;2023-01-27T04:32:02;100944.97;;;-1.67;80.39
64053;BME280;50299;49.524;8.536;2023-01-27T04:34:29;100944.47;;;-1.17;88.95
64053;BME280;50299;49.524;8.536;2023-01-27T04:36:57;100949.03;;;-0.82;87.59
64053;BME280;50299;49.524;8.536;2023-01-27T04:39:24;100949.91;;;-0.65;80.56
64053;BME280;50299;49.524;8.536;2023-01-27T04:41:53;100955.00;;;-0.40;82.93
64053;BME280;50299;49.524;8.536;2023-01-27T04:44:20;100961.13;;;-0.61;73.62
64053;BME280;50299;49.524;8.536;2023-01-27T04:46:47;100945.19;;;-0.58;85.64
64053;BME280;50299;49.524;8.536;2023-01-27T04:49:14;100958.84;;;0.43;100.00
64053;BME280;50299;49.524;8.536;2023-01-27T04:51:40;100947.91;;;0.77;96.59
64053;BME280;50299;49.524;8.536;2023-01-27T04:54:07;100954.06;;;0.51;80.58
64053;BME280;50299;49.524;8.536;2023-01-27T04:56:42;100957.38;;;0.02;78.08
64053;BME280;50299;49.524;8.536;2023-01-27T04:59:18;100961.59;;;0.10;84.66
64053;BME280;50299;49.524;8.536;2023-01-27T05:01:47;100951.72;;;0.20;86.44
64053;BME280;50299;49.524;8.536;2023-01-27T05:04:13;100960.09;;;0.36;83.68
64053;BME280;50299;49.524;8.536;2023-01-27T05:06:40;100968.25;;;0.19;76.59
64053;BME280;50299;49.524;8.536;2023-01-27T05:09:06;100954.31;;;-0.47;76.37
64053;BME280;50299;49.524;8.536;2023-01-27T05:11:33;100958.53;;;-0.11;90.17
64053;BME280;50299;49.524;8.536;2023-01-27T05:13:59;100963.88;;;0.35;93.61
64053;BME280;50299;49.524;8.536;2023-01-27T05:16:26;100965.81;;;0.73;92.70
64053;BME280;50299;49.524;8.536;2023-01-27T05:18:53;100962.06;;;0.40;77.18
64053;BME280;50299;49.524;8.536;2023-01-27T05:21:21;100961.47;;;0.55;89.20
64053;BME280;50299;49.524;8.536;2023-01-27T05:23:48;100955.78;;;1.17;99.76
64053;BME280;50299;49.524;8.536;2023-01-27T05:26:23;100966.22;;;1.26;88.86
64053;BME280;50299;49.524;8.536;2023-01-27T05:28:51;100963.13;;;1.61;99.08
64053;BME280;50299;49.524;8.536;2023-01-27T05:31:21;100969.53;;;2.04;99.49
64053;BME280;50299;49.524;8.536;2023-01-27T05:33:50;100962.97;;;2.74;100.00
64053;BME280;50299;49.524;8.536;2023-01-27T05:36:20;100959.09;;;3.17;100.00
64053;BME280;50299;49.524;8.536;2023-01-27T05:38:47;100967.22;;;2.55;87.42
64053;BME280;50299;49.524;8.536;2023-01-27T05:41:15;100963.78;;;1.46;83.95
64053;BME280;50299;49.524;8.536;2023-01-27T05:43:43;100971.09;;;2.27;100.00
64053;BME280;50299;49.524;8.536;2023-01-27T05:46:18;100968.97;;;2.71;100.00
64053;BME280;50299;49.524;8.536;2023-01-27T05:48:47;100973.31;;;1.43;74.12
64053;BME280;50299;49.524;8.536;2023-01-27T05:51:15;100973.13;;;0.89;82.39
64053;BME280;50299;49.524;8.536;2023-01-27T05:53:43;100980.69;;;1.04;88.40
64053;BME280;50299;49.524;8.536;2023-01-27T05:56:12;100991.28;;;1.72;95.60
64053;BME280;50299;49.524;8.536;2023-01-27T05:58:39;100986.28;;;1.85;92.04
64053;BME280;50299;49.524;8.536;2023-01-27T06:01:08;100987.56;;;1.34;80.72
64053;BME280;50299;49.524;8.536;2023-01-27T06:03:35;100981.09;;;0.96;83.14
64053;BME280;50299;49.524;8.536;2023-01-27T06:06:02;100991.84;;;1.03;85.86
64053;BME280;50299;49.524;8.536;2023-01-27T06:08:29;100992.91;;;0.29;71.20
64053;BME280;50299;49.524;8.536;2023-01-27T06:11:03;100990.84;;;-0.26;72.71
64053;BME280;50299;49.524;8.536;2023-01-27T06:13:31;100985.56;;;-0.04;85.92
64053;BME280;50299;49.524;8.536;2023-01-27T06:16:02;100982.56;;;-0.03;82.63
64053;BME280;50299;49.524;8.536;2023-01-27T06:18:29;100984.63;;;0.07;84.78
64053;BME280;50299;49.524;8.536;2023-01-27T06:20:59;100984.06;;;-0.12;82.21
64053;BME280;50299;49.524;8.536;2023-01-27T06:23:27;100986.53;;;-0.39;81.63
64053;BME280;50299;49.524;8.536;2023-01-27T06:25:55;100987.25;;;-0.72;73.78
64053;BME280;50299;49.524;8.536;2023-01-27T06:28:21;100983.81;;;-0.67;80.66
64053;BME280;50299;49.524;8.536;2023-01-27T06:30:55;100989.84;;;-0.65;82.67
64053;BME280;50299;49.524;8.536;2023-01-27T06:33:22;100980.25;;;-0.68;72.92
64053;BME280;50299;49.524;8.536;2023-01-27T06:35:49;100987.50;;;-0.73;85.22
64053;BME280;50299;49.524;8.536;2023-01-27T06:38:15;100990.28;;;-0.57;82.92
64053;BME280;50299;49.524;8.536;2023-01-27T06:40:42;100990.16;;;-0.05;94.45
64053;BME280;50299;49.524;8.536;2023-01-27T06:43:12;100984.22;;;0.15;86.67
64053;BME280;50299;49.524;8.536;2023-01-27T06:45:39;100986.47;;;0.02;78.33
64053;BME280;50299;49.524;8.536;2023-01-27T06:48:06;100989.25;;;0.07;85.16
64053;BME280;50299;49.524;8.536;2023-01-27T06:50:37;100997.41;;;0.07;80.43
64053;BME280;50299;49.524;8.536;2023-01-27T06:53:05;101000.94;;;0.07;83.06
64053;BME280;50299;49.524;8.536;2023-01-27T06:55:32;101008.66;;;-0.18;73.09
64053;BME280;50299;49.524;8.536;2023-01-27T06:58:02;101016.63;;;0.00;84.61
64053;BME280;50299;49.524;8.536;2023-01-27T07:00:28;101017.81;;;-0.08;77.84
64053;BME280;50299;49.524;8.536;2023-01-27T07:02:55;101020.06;;;-0.62;79.04
64053;BME280;50299;49.524;8.536;2023-01-27T07:05:22;101026.94;;;-0.42;85.92
64053;BME280;50299;49.524;8.536;2023-01-27T07:07:49;101024.47;;;-0.15;86.03
64053;BME280;50299;49.524;8.536;2023-01-27T07:10:16;101031.03;;;0.01;84.37
64053;BME280;50299;49.524;8.536;2023-01-27T07:12:42;101034.81;;;-0.00;84.15
64053;BME280;50299;49.524;8.536;2023-01-27T07:15:09;101042.84;;;-0.06;77.57
64053;BME280;50299;49.524;8.536;2023-01-27T07:17:36;101038.31;;;-0.45;78.39
64053;BME280;50299;49.524;8.536;2023-01-27T07:20:04;101040.38;;;-0.36;82.98
64053;BME280;50299;49.524;8.536;2023-01-27T07:22:31;101044.81;;;-0.18;80.70
64053;BME280;50299;49.524;8.536;2023-01-27T07:24:57;101044.06;;;-0.13;80.56
64053;BME280;50299;49.524;8.536;2023-01-27T07:27:24;101050.97;;;0.06;83.41
64053;BME280;50299;49.524;8.536;2023-01-27T07:29:50;101048.63;;;-0.02;77.79
64053;BME280;50299;49.524;8.536;2023-01-27T07:32:17;101049.53;;;0.49;92.99
64053;BME280;50299;49.524;8.536;2023-01-27T07:34:43;101053.31;;;0.99;95.13
64053;BME280;50299;49.524;8.536;2023-01-27T07:37:11;101056.19;;;0.92;80.82
64053;BME280;50299;49.524;8.536;2023-01-27T07:39:38;101065.53;;;0.45;79.31
64053;BME280;50299;49.524;8.536;2023-01-27T07:42:04;101056.31;;;0.01;76.70
64053;BME280;50299;49.524;8.536;2023-01-27T07:44:32;101069.72;;;-0.49;69.91
64053;BME280;50299;49.524;8.536;2023-01-27T07:46:58;101074.47;;;-0.57;76.68
64053;BME280;50299;49.524;8.536;2023-01-27T07:49:25;101072.50;;;-0.85;73.39
64053;BME280;50299;49.524;8.536;2023-01-27T07:51:59;101083.59;;;-0.98;74.15
64053;BME280;50299;49.524;8.536;2023-01-27T07:54:25;101085.66;;;-1.35;70.35
64053;BME280;50299;49.524;8.536;2023-01-27T07:56:52;101081.09;;;-1.23;77.77
64053;BME280;50299;49.524;8.536;2023-01-27T07:59:21;101095.34;;;-1.39;76.53
64053;BME280;50299;49.524;8.536;2023-01-27T08:01:58;101087.34;;;-1.11;82.52
64053;BME280;50299;49.524;8.536;2023-01-27T08:04:24;101092.78;;;-0.75;84.32
64053;BME280;50299;49.524;8.536;2023-01-27T08:06:51;101095.75;;;-0.89;80.41
64053;BME280;50299;49.524;8.536;2023-01-27T08:09:20;101101.06;;;-0.70;81.57
64053;BME280;50299;49.524;8.536;2023-01-27T08:11:46;101094.16;;;-0.09;92.22
64053;BME280;50299;49.524;8.536;2023-01-27T08:14:13;101093.41;;;0.69;99.95
64053;BME280;50299;49.524;8.536;2023-01-27T08:16:39;101092.75;;;0.62;86.36
64053;BME280;50299;49.524;8.536;2023-01-27T08:19:09;101089.56;;;1.21;97.17
64053;BME280;50299;49.524;8.536;2023-01-27T08:21:35;101091.84;;;1.46;92.37
64053;BME280;50299;49.524;8.536;2023-01-27T08:24:01;101091.38;;;1.76;95.64
64053;BME280;50299;49.524;8.536;2023-01-27T08:26:28;101092.00;;;2.32;100.00
64053;BME280;50299;49.524;8.536;2023-01-27T08:28:54;101092.47;;;2.51;96.99
64053;BME280;50299;49.524;8.536;2023-01-27T08:31:21;101096.44;;;2.70;96.23
64053;BME280;50299;49.524;8.536;2023-01-27T08:33:52;101090.06;;;2.55;87.08
64053;BME280;50299;49.524;8.536;2023-01-27T08:36:21;101090.78;;;2.77;97.03
64053;BME280;50299;49.524;8.536;2023-01-27T08:38:47;101089.81;;;2.93;97.57
64053;BME280;50299;49.524;8.536;2023-01-27T08:41:25;101096.06;;;2.89;90.88
64053;BME280;50299;49.524;8.536;2023-01-27T08:43:53;101102.88;;;2.91;93.89
64053;BME280;50299;49.524;8.536;2023-01-27T08:46:20;101105.56;;;3.24;99.49
64053;BME280;50299;49.524;8.536;2023-01-27T08:48:47;101108.94;;;3.31;80.27
64053;BME280;50299;49.524;8.536;2023-01-27T08:51:16;101105.81;;;2.80;83.18
64053;BME280;50299;49.524;8.536;2023-01-27T08:53:42;101110.22;;;2.86;82.01
64053;BME280;50299;49.524;8.536;2023-01-27T08:56:14;101105.94;;;2.63;79.51
64053;BME280;50299;49.524;8.536;2023-01-27T08:58:41;101100.25;;;1.88;62.37
64053;BME280;50299;49.524;8.536;2023-01-27T09:01:08;101106.28;;;1.90;80.79
64053;BME280;50299;49.524;8.536;2023-01-27T09:03:37;101113.41;;;1.69;77.44
64053;BME280;50299;49.524;8.536;2023-01-27T09:06:04;101119.78;;;1.80;83.19
64053;BME280;50299;49.524;8.536;2023-01-27T09:08:32;101116.75;;;1.99;89.70
64053;BME280;50299;49.524;8.536;2023-01-27T09:10:59;101115.03;;;2.14;80.97
64053;BME280;50299;49.524;8.536;2023-01-27T09:13:25;101117.34;;;2.28;88.04
64053;BME280;50299;49.524;8.536;2023-01-27T09:15:57;101119.88;;;2.34;88.00
64053;BME280;50299;49.524;8.536;2023-01-27T09:18:27;101119.84;;;2.61;86.12
64053;BME280;50299;49.524;8.536;2023-01-27T09:20:54;101115.41;;;2.87;94.86
64053;BME280;50299;49.524;8.536;2023-01-27T09:23:21;101117.75;;;3.48;100.00
64053;BME280;50299;49.524;8.536;2023-01-27T09:25:50;101121.09;;;3.60;88.41
64053;BME280;50299;49.524;8.536;2023-01-27T09:28:26;101128.88;;;3.31;82.20
64053;BME280;50299;49.524;8.536;2023-01-27T09:30:58;101131.06;;;2.97;86.00
64053;BME280;50299;49.524;8.536;2023-01-27T09:33:44;101133.03;;;2.69;85.31
64053;BME280;50299;49.524;8.536;2023-01-27T09:36:19;101133.72;;;2.55;74.19
64053;BME280;50299;49.524;8.536;2023-01-27T09:38:53;101136.13;;;2.51;81.08
64053;BME280;50299;49.524;8.536;2023-01-27T09:44:24;101145.88;;;1.93;70.56
64053;BME280;50299;49.524;8.536;2023-01-27T09:47:15;101147.81;;;1.54;77.52
64053;BME280;50299;49.524;8.536;2023-01-27T09:52:49;101145.19;;;1.81;68.79
64053;BME280;50299;49.524;8.536;2023-01-27T09:55:41;101141.41;;;0.76;64.39
64053;BME280;50299;49.524;8.536;2023-01-27T09:58:39;101147.72;;;0.19;65.10
64053;BME280;50299;49.524;8.536;2023-01-27T10:07:15;101142.91;;;0.09;88.20
64053;BME280;50299;49.524;8.536;2023-01-27T10:13:08;101146.91;;;0.64;64.77
64053;BME280;50299;49.524;8.536;2023-01-27T10:18:36;101145.53;;;-0.48;67.89
64053;BME280;50299;49.524;8.536;2023-01-27T10:21:19;101145.22;;;-0.11;79.73
64053;BME280;50299;49.524;8.536;2023-01-27T10:24:27;101134.06;;;0.76;90.07
64053;BME280;50299;49.524;8.536;2023-01-27T10:27:11;101137.25;;;0.90;74.20
64053;BME280;50299;49.524;8.536;2023-01-27T10:29:56;101132.53;;;0.52;71.46
64053;BME280;50299;49.524;8.536;2023-01-27T10:38:35;101116.38;;;-0.00;71.46
64053;BME280;50299;49.524;8.536;2023-01-27T10:41:17;101119.34;;;0.43;69.35
64053;BME280;50299;49.524;8.536;2023-01-27T10:49:44;101112.50;;;1.42;85.14
64053;BME280;50299;49.524;8.536;2023-01-27T10:52:18;101113.41;;;1.48;69.44
64053;BME280;50299;49.524;8.536;2023-01-27T10:54:58;101118.28;;;1.89;87.39
64053;BME280;50299;49.524;8.536;2023-01-27T10:57:33;101112.19;;;2.31;75.19
64053;BME280;50299;49.524;8.536;2023-01-27T11:00:05;101118.19;;;2.33;83.95
64053;BME280;50299;49.524;8.536;2023-01-27T11:03:06;101120.63;;;1.81;66.74
64053;BME280;50299;49.524;8.536;2023-01-27T11:05:43;101120.19;;;1.67;82.41
64053;BME280;50299;49.524;8.536;2023-01-27T11:08:17;101113.00;;;1.05;68.66
64053;BME280;50299;49.524;8.536;2023-01-27T11:10:48;101106.16;;;0.69;67.21
64053;BME280;50299;49.524;8.536;2023-01-27T11:13:36;101105.03;;;0.99;78.54
64053;BME280;50299;49.524;8.536;2023-01-27T11:16:05;101102.06;;;0.50;66.61
64053;BME280;50299;49.524;8.536;2023-01-27T11:18:36;101099.66;;;1.04;84.03
64053;BME280;50299;49.524;8.536;2023-01-27T11:21:08;101102.47;;;1.31;80.42
64053;BME280;50299;49.524;8.536;2023-01-27T11:23:43;101099.75;;;1.31;73.07
64053;BME280;50299;49.524;8.536;2023-01-27T11:26:31;101096.66;;;1.22;69.99
64053;BME280;50299;49.524;8.536;2023-01-27T11:32:20;101096.41;;;0.39;61.53
64053;BME280;50299;49.524;8.536;2023-01-27T11:35:10;101099.09;;;0.68;73.68
64053;BME280;50299;49.524;8.536;2023-01-27T11:37:48;101095.69;;;1.11;81.15
64053;BME280;50299;49.524;8.536;2023-01-27T11:40:29;101093.91;;;0.83;65.56
64053;BME280;50299;49.524;8.536;2023-01-27T11:42:57;101095.81;;;1.21;66.18
64053;BME280;50299;49.524;8.536;2023-01-27T11:45:24;101100.34;;;1.50;78.77
64053;BME280;50299;49.524;8.536;2023-01-27T11:47:57;101096.41;;;1.62;81.28
64053;BME280;50299;49.524;8.536;2023-01-27T11:50:29;101084.56;;;1.74;65.01
64053;BME280;50299;49.524;8.536;2023-01-27T11:53:10;101079.31;;;1.28;60.27
64053;BME280;50299;49.524;8.536;2023-01-27T11:55:41;101081.72;;;1.25;69.27
64053;BME280;50299;49.524;8.536;2023-01-27T11:58:24;101080.00;;;-0.51;63.50
64053;BME280;50299;49.524;8.536;2023-01-27T12:01:03;101091.03;;;-0.82;73.51
64053;BME280;50299;49.524;8.536;2023-01-27T12:06:30;101087.81;;;-0.15;64.76
64053;BME280;50299;49.524;8.536;2023-01-27T12:08:57;101094.19;;;-1.20;60.65
64053;BME280;50299;49.524;8.536;2023-01-27T12:11:26;101083.44;;;-0.68;62.38
64053;BME280;50299;49.524;8.536;2023-01-27T12:13:59;101082.63;;;-0.68;64.27
64053;BME280;50299;49.524;8.536;2023-01-27T12:16:44;101084.41;;;-0.86;62.21
64053;BME280;50299;49.524;8.536;2023-01-27T12:20:04;101083.81;;;-0.99;61.97
64053;BME280;50299;49.524;8.536;2023-01-27T12:22:26;101083.22;;;-0.66;65.54
64053;BME280;50299;49.524;8.536;2023-01-27T12:24:57;101087.44;;;-0.59;62.42
64053;BME280;50299;49.524;8.536;2023-01-27T12:27:28;101090.53;;;-1.14;61.96
64053;BME280;50299;49.524;8.536;2023-01-27T12:30:06;101085.00;;;-0.72;61.23
64053;BME280;50299;49.524;8.536;2023-01-27T12:32:43;101074.91;;;-0.08;68.16
64053;BME280;50299;49.524;8.536;2023-01-27T12:35:22;101089.25;;;-0.99;62.02
64053;BME280;50299;49.524;8.536;2023-01-27T12:38:20;101082.53;;;-2.34;65.33
64053;BME280;50299;49.524;8.536;2023-01-27T12:40:45;101080.41;;;-2.32;69.97
64053;BME280;50299;49.524;8.536;2023-01-27T12:43:16;101086.16;;;-1.80;66.19
64053;BME280;50299;49.524;8.536;2023-01-27T12:46:03;101081.38;;;-1.96;66.10
64053;BME280;50299;49.524;8.536;2023-01-27T12:48:31;101082.31;;;-1.49;67.23
64053;BME280;50299;49.524;8.536;2023-01-27T12:51:13;101079.75;;;-1.44;63.76
64053;BME280;50299;49.524;8.536;2023-01-27T12:53:43;101072.53;;;-1.62;64.25
64053;BME280;50299;49.524;8.536;2023-01-27T12:56:16;101080.00;;;-2.17;65.58
64053;BME280;50299;49.524;8.536;2023-01-27T12:58:56;101065.31;;;-1.03;71.36
64053;BME280;50299;49.524;8.536;2023-01-27T13:01:28;101071.91;;;-0.98;63.72
64053;BME280;50299;49.524;8.536;2023-01-27T13:04:05;101074.66;;;-0.46;64.67
64053;BME280;50299;49.524;8.536;2023-01-27T13:06:42;101070.81;;;-0.62;64.21
64053;BME280;50299;49.524;8.536;2023-01-27T13:09:31;101079.81;;;-0.85;66.87
64053;BME280;50299;49.524;8.536;2023-01-27T13:12:08;101070.97;;;-0.29;63.34
64053;BME280;50299;49.524;8.536;2023-01-27T13:14:40;101075.81;;;-0.94;60.99
64053;BME280;50299;49.524;8.536;2023-01-27T13:17:41;101067.78;;;-0.89;66.44
64053;BME280;50299;49.524;8.536;2023-01-27T13:22:47;101066.16;;;-0.10;60.75
64053;BME280;50299;49.524;8.536;2023-01-27T13:25:19;101065.53;;;0.29;59.70
64053;BME280;50299;49.524;8.536;2023-01-27T13:27:49;101068.81;;;0.81;62.57
64053;BME280;50299;49.524;8.536;2023-01-27T13:30:24;101065.94;;;1.27;63.34
64053;BME280;50299;49.524;8.536;2023-01-27T13:42:11;101068.50;;;-0.82;60.60
64053;BME280;50299;49.524;8.536;2023-01-27T13:44:44;101064.06;;;-0.19;59.03
64053;BME280;50299;49.524;8.536;2023-01-27T13:47:17;101068.69;;;0.09;62.34
64053;BME280;50299;49.524;8.536;2023-01-27T13:49:53;101074.25;;;0.47;62.54
64053;BME280;50299;49.524;8.536;2023-01-27T13:52:23;101080.00;;;-0.63;61.51
64053;BME280;50299;49.524;8.536;2023-01-27T13:54:51;101074.06;;;0.20;62.29
64053;BME280;50299;49.524;8.536;2023-01-27T13:57:27;101072.47;;;-1.32;60.91
64053;BME280;50299;49.524;8.536;2023-01-27T14:05:42;101067.78;;;0.20;62.93
64053;BME280;50299;49.524;8.536;2023-01-27T14:11:15;101078.16;;;2.12;59.57
64053;BME280;50299;49.524;8.536;2023-01-27T14:19:48;101069.41;;;1.83;65.90
64053;BME280;50299;49.524;8.536;2023-01-27T14:22:27;101078.16;;;2.12;65.18
64053;BME280;50299;49.524;8.536;2023-01-27T14:25:05;101071.00;;;2.65;83.52
64053;BME280;50299;49.524;8.536;2023-01-27T14:28:01;101069.84;;;2.88;66.71